Terminal Aerodrome Forecast
Issued by NWS

Home | Current Version | Previous Version | Text Only | Print | Product List | Glossary On
Versions: 1 2 3 4 5 6 7 8 9 10 11 12 13 14 15 16 17
000
FTUS41 KBTV 251131
TAFSLK
TAF
KSLK 251131Z 2512/2612 05006KT P6SM VCSH SCT005 OVC018
      TEMPO 2512/2514 4SM -SHRA BR OVC005
     FM251400 05004KT P6SM OVC015
     FM252000 06005KT P6SM BKN040
     FM260000 VRB02KT P6SM SKC
     FM260600 00000KT 1/4SM FG VV001=

USA.gov is the U.S. government's official web portal to all federal, state and local government web resources and services.